KGRK

Killeen-Fort Hood Regional Airport

Airport
ICAO code
KGRK
IATA Code
GRK
Summary
ICAO Region
NAM
ICAO Territory
Location

Killeen, Texas

Serving
Killeen
Elevation
1015 ft
Coordinates
31° 3' 43" N , 97° 49' 17" W
KCC
Airport WX
Cumulonimbus
Metar
KGRK 201605Z AUTO 12004KT 10SM SCT029 BKN050 31/22 A3007 RMK AO2 SLP167

Killeen–Fort Hood Regional Airport, also known as Robert Gray Army Airfield, is a small military/commercial joint-use airport located inside of the Fort Hood Military Reservation, 6 nm southwest of the central business district of Killeen, in Bell County, Texas, USA.

Airport map

Aerial View

SKYbrary Partners:

Safety knowledge contributed by: